Time;durP1;ratioP1;P1;durP2;ratioP2;P2;SDS_P1;SDS_P2;PMS_P1;PMS_P2;Temp;Humidity;BMP_temperature;BMP_pressure;BME280_temperature;BME280_humidity;BME280_pressure;Samples;Min_cycle;Max_cycle;Signal;HPM_P1;HPM_P2
2021/06/17 00:01:01;;;;;;;3.63;2.80;;;;;;;16.07;74.47;100973.81;5023869;28;20452;-76
2021/06/17 00:03:28;;;;;;;4.78;2.95;;;;;;;16.04;74.76;100972.97;5026400;28;20043;-75
2021/06/17 00:05:55;;;;;;;4.85;2.88;;;;;;;16.09;74.48;100979.94;5024655;28;20045;-76
2021/06/17 00:08:23;;;;;;;5.18;2.83;;;;;;;16.06;74.06;100978.28;5042100;28;20480;-75
2021/06/17 00:10:50;;;;;;;3.13;2.80;;;;;;;16.05;73.95;100979.19;5029401;28;20041;-75
2021/06/17 00:13:20;;;;;;;3.38;2.70;;;;;;;15.97;74.82;100970.59;4997052;28;20126;-75
2021/06/17 00:15:48;;;;;;;4.78;3.05;;;;;;;16.10;73.50;100974.56;5026369;28;20041;-76
2021/06/17 00:18:15;;;;;;;5.05;3.03;;;;;;;16.03;74.67;100971.25;5032178;28;20041;-75
2021/06/17 00:20:48;;;;;;;3.70;3.10;;;;;;;16.04;74.72;100977.44;5008354;28;20041;-75
2021/06/17 00:23:15;;;;;;;3.40;3.10;;;;;;;15.98;74.74;100975.03;5013993;28;20053;-75
2021/06/17 00:25:42;;;;;;;3.47;2.80;;;;;;;15.94;74.95;100970.72;5017366;28;20061;-75
2021/06/17 00:28:10;;;;;;;5.32;2.97;;;;;;;15.99;74.33;100972.31;5010936;28;20056;-76
2021/06/17 00:30:38;;;;;;;3.85;2.50;;;;;;;15.90;75.41;100974.44;5007721;28;20041;-75
2021/06/17 00:33:06;;;;;;;4.47;3.28;;;;;;;16.01;74.04;100981.09;5010423;28;20042;-76
2021/06/17 00:35:35;;;;;;;2.85;2.63;;;;;;;15.97;74.72;100968.81;5033557;28;20041;-75
2021/06/17 00:38:03;;;;;;;3.42;3.13;;;;;;;15.96;75.89;100974.19;5038585;28;20406;-75
2021/06/17 00:40:30;;;;;;;4.13;2.63;;;;;;;15.96;74.87;100976.84;5027103;28;20216;-75
2021/06/17 00:42:57;;;;;;;4.45;2.90;;;;;;;15.88;74.83;100976.28;5011883;28;20037;-75
2021/06/17 00:45:29;;;;;;;5.40;3.42;;;;;;;15.94;74.28;100974.25;5008012;28;20566;-76
2021/06/17 00:47:57;;;;;;;4.40;3.28;;;;;;;15.78;75.85;100975.75;5023781;28;20045;-76
2021/06/17 00:50:30;;;;;;;4.20;2.90;;;;;;;15.82;75.82;100976.53;5030524;28;20071;-76
2021/06/17 00:52:59;;;;;;;4.43;2.63;;;;;;;15.76;76.04;100981.16;5014917;28;20034;-76
2021/06/17 00:55:27;;;;;;;5.07;2.83;;;;;;;15.83;75.11;100979.13;4997145;28;20049;-76
2021/06/17 00:57:54;;;;;;;4.95;2.70;;;;;;;15.73;75.86;100973.28;5018610;28;20107;-75
2021/06/17 01:00:22;;;;;;;4.38;3.00;;;;;;;15.79;75.77;100977.50;5022714;28;20690;-75
2021/06/17 01:02:51;;;;;;;4.13;2.78;;;;;;;15.81;76.63;100977.44;5025944;28;20501;-75
2021/06/17 01:05:20;;;;;;;3.90;3.28;;;;;;;15.75;76.41;100974.09;5010153;28;20133;-75
2021/06/17 01:07:56;;;;;;;4.60;3.22;;;;;;;15.73;76.80;100969.75;5009394;28;20049;-75
2021/06/17 01:10:40;;;;;;;4.35;2.80;;;;;;;15.67;77.36;100976.16;5025260;28;20048;-75
2021/06/17 01:13:14;;;;;;;17.13;4.57;;;;;;;15.72;76.82;100971.53;5024939;28;20033;-76
2021/06/17 01:16:29;;;;;;;8.35;3.83;;;;;;;15.70;75.90;100967.16;5008558;28;20217;-75
2021/06/17 01:19:10;;;;;;;15.57;4.20;;;;;;;15.69;76.82;100965.44;5010973;28;20129;-75
2021/06/17 01:21:37;;;;;;;8.48;3.88;;;;;;;15.73;76.41;100967.94;5016858;28;20033;-75
2021/06/17 01:24:13;;;;;;;6.80;3.70;;;;;;;15.63;77.23;100969.19;5010943;28;20045;-78
2021/06/17 01:26:54;;;;;;;3.65;3.13;;;;;;;15.57;77.26;100960.53;5009475;28;20261;-75
2021/06/17 01:29:23;;;;;;;5.38;3.30;;;;;;;15.62;76.76;100958.59;5029688;28;20049;-75
2021/06/17 01:31:51;;;;;;;6.28;3.33;;;;;;;15.61;77.66;100954.19;5021382;28;20037;-76
2021/06/17 01:34:19;;;;;;;5.32;3.33;;;;;;;15.53;77.92;100957.09;5039766;28;20528;-76
2021/06/17 01:36:49;;;;;;;6.40;3.50;;;;;;;15.58;78.00;100957.81;5022034;28;20040;-76
2021/06/17 01:39:18;;;;;;;6.18;3.50;;;;;;;15.53;78.02;100956.22;5043305;28;20068;-75
2021/06/17 01:41:52;;;;;;;3.83;3.33;;;;;;;15.60;77.81;100955.09;5025033;28;20033;-74
2021/06/17 01:44:21;;;;;;;5.00;3.40;;;;;;;15.56;77.92;100950.81;5028525;28;20392;-75
2021/06/17 01:46:49;;;;;;;5.43;3.60;;;;;;;15.51;78.07;100947.44;5030956;28;20128;-76
2021/06/17 01:49:18;;;;;;;5.68;3.97;;;;;;;15.51;78.38;100944.78;5022999;28;20377;-76
2021/06/17 01:51:49;;;;;;;4.63;3.10;;;;;;;15.43;78.61;100951.25;5005338;28;20037;-76
2021/06/17 01:54:24;;;;;;;5.45;3.50;;;;;;;15.50;77.70;100951.91;5011605;28;20052;-77
2021/06/17 01:56:53;;;;;;;6.03;3.55;;;;;;;15.56;77.76;100949.03;5009636;28;20103;-76
2021/06/17 01:59:22;;;;;;;4.22;3.67;;;;;;;15.49;78.01;100947.50;5024611;28;20426;-76
2021/06/17 02:01:55;;;;;;;4.45;3.10;;;;;;;15.43;77.37;100947.72;5023696;28;20033;-76
2021/06/17 02:04:23;;;;;;;5.65;3.17;;;;;;;15.42;78.29;100948.63;5006925;28;20041;-76
2021/06/17 02:06:53;;;;;;;3.80;3.50;;;;;;;15.43;78.56;100945.06;5008141;28;20057;-77
2021/06/17 02:09:22;;;;;;;4.90;3.47;;;;;;;15.39;78.68;100948.75;5005582;28;20483;-76
2021/06/17 02:11:49;;;;;;;4.55;3.53;;;;;;;15.42;78.73;100938.00;5019736;28;20041;-76
2021/06/17 02:14:16;;;;;;;3.88;3.45;;;;;;;15.38;78.76;100945.19;5019099;28;20056;-76
2021/06/17 02:16:43;;;;;;;4.35;3.60;;;;;;;15.46;78.90;100942.25;5018682;28;20041;-76
2021/06/17 02:19:12;;;;;;;4.18;3.65;;;;;;;15.46;78.07;100942.25;5002943;28;20033;-76
2021/06/17 02:21:40;;;;;;;5.78;4.10;;;;;;;15.41;78.92;100942.44;5002548;28;20465;-77
2021/06/17 02:24:08;;;;;;;5.43;4.03;;;;;;;15.44;79.05;100923.69;5003699;28;20046;-76
2021/06/17 02:26:42;;;;;;;5.22;3.80;;;;;;;15.33;80.17;100933.00;5002906;28;20052;-76
2021/06/17 02:29:11;;;;;;;4.85;3.60;;;;;;;15.36;79.18;100922.22;5020304;28;20030;-76
2021/06/17 02:31:41;;;;;;;4.55;4.00;;;;;;;15.27;79.95;100925.22;5032945;28;20104;-77
2021/06/17 02:34:09;;;;;;;4.20;3.72;;;;;;;15.40;79.58;100918.56;5015531;28;20061;-76
2021/06/17 02:36:38;;;;;;;5.38;4.13;;;;;;;15.29;80.25;100918.03;5036249;28;20073;-77
2021/06/17 02:39:06;;;;;;;4.55;3.20;;;;;;;15.31;80.87;100917.09;5036146;28;20084;-76
2021/06/17 02:41:34;;;;;;;5.20;4.00;;;;;;;15.32;79.79;100909.97;5036957;28;20083;-76
2021/06/17 02:44:01;;;;;;;4.57;3.25;;;;;;;15.41;80.46;100912.28;5005109;28;20590;-76
2021/06/17 02:46:28;;;;;;;4.45;3.90;;;;;;;15.34;80.62;100908.97;5035924;28;20037;-76
2021/06/17 02:48:55;;;;;;;5.60;3.90;;;;;;;15.32;80.40;100912.63;5020697;28;20111;-76
2021/06/17 02:51:22;;;;;;;6.40;4.93;;;;;;;15.32;80.63;100909.97;5032578;28;20049;-76
2021/06/17 02:53:49;;;;;;;6.22;4.35;;;;;;;15.47;79.15;100912.94;5027645;28;20099;-76
2021/06/17 02:56:25;;;;;;;5.80;4.00;;;;;;;15.46;80.50;100915.63;5025748;28;20033;-76
2021/06/17 02:59:39;;;;;;;7.40;4.35;;;;;;;15.44;80.48;100915.69;5015057;28;20677;-75
2021/06/17 03:02:13;;;;;;;6.30;4.22;;;;;;;15.53;79.35;100908.31;5070574;22;20044;-83
2021/06/17 03:04:55;;;;;;;4.60;4.13;;;;;;;15.55;79.01;100909.09;5067355;28;20040;-77
2021/06/17 03:07:24;;;;;;;4.65;3.83;;;;;;;15.55;80.33;100909.09;5032455;28;20098;-80
2021/06/17 03:09:55;;;;;;;6.38;4.15;;;;;;;15.56;80.45;100916.19;5050072;28;20094;-80
2021/06/17 03:12:25;;;;;;;5.10;4.25;;;;;;;15.55;79.96;100915.31;5012002;28;20433;-82
2021/06/17 03:14:54;;;;;;;5.70;4.85;;;;;;;15.72;79.23;100906.72;5016723;28;20092;-78
2021/06/17 03:17:22;;;;;;;5.18;4.35;;;;;;;15.65;79.35;100900.78;5021724;28;20038;-79
2021/06/17 03:19:52;;;;;;;5.03;4.28;;;;;;;15.65;80.32;100910.56;5011832;28;20060;-79
2021/06/17 03:22:21;;;;;;;6.13;4.35;;;;;;;15.68;79.96;100905.97;5034135;28;20037;-82
2021/06/17 03:24:50;;;;;;;8.30;5.07;;;;;;;15.62;80.45;100905.31;5043632;28;20037;-77
2021/06/17 03:27:17;;;;;;;6.18;3.83;;;;;;;15.73;80.18;100908.47;5009976;28;20037;-81
2021/06/17 03:29:47;;;;;;;6.25;5.43;;;;;;;15.76;80.70;100903.03;5003522;28;20080;-78
2021/06/17 03:32:16;;;;;;;7.13;5.43;;;;;;;15.68;81.24;100902.44;5004298;28;20375;-79
2021/06/17 03:34:44;;;;;;;5.45;4.60;;;;;;;15.77;80.77;100902.09;5028753;28;20048;-79
2021/06/17 03:37:14;;;;;;;6.85;5.22;;;;;;;15.85;80.46;100902.66;5038558;28;20382;-82
2021/06/17 03:39:42;;;;;;;5.97;4.82;;;;;;;15.90;80.43;100897.19;5018931;28;20252;-78
2021/06/17 03:42:10;;;;;;;8.73;5.47;;;;;;;15.86;81.52;100898.22;5025389;28;20090;-79
2021/06/17 03:44:39;;;;;;;7.45;4.90;;;;;;;15.93;80.06;100905.91;5053225;28;20052;-77
2021/06/17 03:47:07;;;;;;;5.13;4.63;;;;;;;15.98;80.56;100906.63;5034150;28;20062;-80
2021/06/17 03:49:35;;;;;;;5.30;4.80;;;;;;;16.07;80.52;100905.38;5002498;28;20075;-77
2021/06/17 03:52:02;;;;;;;5.47;4.82;;;;;;;16.21;78.67;100899.47;5023920;28;20045;-78
2021/06/17 03:54:29;;;;;;;8.23;6.32;;;;;;;16.37;79.45;100905.94;5022672;28;20064;-78
2021/06/17 03:56:59;;;;;;;6.85;5.00;;;;;;;16.44;79.07;100906.56;5016883;28;20044;-77
2021/06/17 03:59:28;;;;;;;6.93;5.05;;;;;;;16.55;79.26;100899.84;5031803;28;20087;-79
2021/06/17 04:01:55;;;;;;;5.97;4.60;;;;;;;16.50;78.86;100911.66;5014295;28;20037;-76
2021/06/17 04:04:25;;;;;;;5.70;5.20;;;;;;;16.51;80.31;100910.72;5020829;28;20052;-78
2021/06/17 04:06:58;;;;;;;6.70;5.40;;;;;;;16.64;78.16;100906.59;5025820;28;20052;-78
2021/06/17 04:09:29;;;;;;;7.35;5.38;;;;;;;16.81;77.30;100904.13;5007118;28;20049;-80
2021/06/17 04:12:06;;;;;;;9.32;5.45;;;;;;;16.92;77.08;100892.16;5000305;28;20086;-81
2021/06/17 04:14:35;;;;;;;6.20;5.30;;;;;;;16.94;77.10;100892.94;5032594;28;20036;-77
2021/06/17 04:17:03;;;;;;;6.35;5.15;;;;;;;17.03;77.05;100893.41;5017347;28;20626;-80
2021/06/17 04:19:31;;;;;;;6.75;5.43;;;;;;;17.13;76.39;100896.53;5027548;28;20036;-79
2021/06/17 04:22:00;;;;;;;6.30;5.45;;;;;;;17.19;75.85;100888.28;5033145;28;20477;-80
2021/06/17 04:24:29;;;;;;;6.45;5.50;;;;;;;17.31;76.31;100887.72;5021773;28;20052;-79
2021/06/17 04:26:57;;;;;;;8.27;6.40;;;;;;;17.37;76.31;100886.56;5029672;28;20041;-79
2021/06/17 04:29:24;;;;;;;6.22;5.57;;;;;;;17.52;75.24;100890.38;5048418;28;20231;-77
2021/06/17 04:31:53;;;;;;;6.28;5.68;;;;;;;17.53;75.89;100894.78;5031389;28;20387;-78
2021/06/17 04:34:20;;;;;;;7.93;5.88;;;;;;;17.54;76.46;100900.03;5041236;28;20525;-81
2021/06/17 04:36:47;;;;;;;8.13;5.78;;;;;;;17.62;75.56;100894.34;5022139;28;20036;-77
2021/06/17 04:39:14;;;;;;;6.57;5.53;;;;;;;17.65;75.59;100899.53;5035044;28;20571;-78
2021/06/17 04:41:45;;;;;;;7.80;5.72;;;;;;;17.87;74.67;100894.97;5037763;28;20086;-79
2021/06/17 04:44:12;;;;;;;6.82;6.15;;;;;;;18.19;72.57;100900.59;5003642;28;20055;-78
2021/06/17 04:46:38;;;;;;;7.32;6.63;;;;;;;18.13;73.77;100896.41;5028530;28;20063;-77
2021/06/17 04:49:12;;;;;;;9.90;7.80;;;;;;;18.26;73.38;100894.88;5019333;28;20033;-79
2021/06/17 04:51:39;;;;;;;9.05;6.80;;;;;;;18.32;73.04;100899.06;5024873;28;20052;-77
2021/06/17 04:54:18;;;;;;;7.60;6.38;;;;;;;18.33;73.79;100907.94;5019489;28;20037;-77
2021/06/17 04:56:46;;;;;;;6.90;5.80;;;;;;;18.47;73.40;100906.34;5015934;28;20424;-79
2021/06/17 04:59:16;;;;;;;7.75;6.40;;;;;;;18.71;73.01;100914.13;5020849;28;20049;-79
2021/06/17 05:01:43;;;;;;;9.10;6.30;;;;;;;18.84;71.83;100908.09;5013466;28;20041;-77
2021/06/17 05:04:10;;;;;;;8.13;7.07;;;;;;;18.94;71.56;100905.81;5018174;28;20037;-79
2021/06/17 05:06:39;;;;;;;10.93;6.90;;;;;;;19.01;71.13;100911.72;5040177;28;20052;-77
2021/06/17 05:11:52;;;;;;;11.43;7.72;;;;;;;19.11;70.95;100918.31;5040330;28;20114;-78
2021/06/17 05:14:19;;;;;;;7.57;6.55;;;;;;;19.10;72.33;100916.59;5020715;28;20044;-78
2021/06/17 05:16:47;;;;;;;8.98;7.30;;;;;;;19.23;71.07;100920.34;5019317;28;20052;-79
2021/06/17 05:19:15;;;;;;;8.02;7.15;;;;;;;19.28;72.33;100922.81;5007210;28;20052;-78
2021/06/17 05:21:42;;;;;;;7.15;6.47;;;;;;;19.31;71.80;100918.13;5038952;28;20136;-80
2021/06/17 05:24:09;;;;;;;8.07;6.50;;;;;;;19.52;70.97;100924.19;5038390;28;20048;-78
2021/06/17 05:26:36;;;;;;;7.72;6.60;;;;;;;19.63;70.34;100919.13;5014651;28;20055;-81
2021/06/17 05:29:03;;;;;;;7.88;6.53;;;;;;;19.63;70.66;100918.28;5037678;28;20037;-79
2021/06/17 05:31:30;;;;;;;9.98;7.18;;;;;;;19.68;71.07;100916.22;5057409;28;20094;-81
2021/06/17 05:33:57;;;;;;;8.38;7.38;;;;;;;19.64;71.55;100918.19;5020698;28;20455;-82
2021/06/17 05:36:24;;;;;;;9.00;6.93;;;;;;;19.66;71.49;100921.63;5049945;28;20127;-83
2021/06/17 05:38:52;;;;;;;9.48;7.47;;;;;;;19.79;70.63;100921.84;5018399;28;20090;-81
2021/06/17 05:41:19;;;;;;;9.60;7.13;;;;;;;20.08;69.17;100920.22;5023747;28;20036;-82
2021/06/17 05:43:46;;;;;;;7.20;6.50;;;;;;;20.91;68.46;100911.00;5034211;28;20053;-80
2021/06/17 05:46:12;;;;;;;7.32;6.55;;;;;;;23.10;60.36;100908.66;4999526;28;20037;-80
2021/06/17 05:48:40;;;;;;;8.30;6.30;;;;;;;24.96;53.47;100916.72;5047391;28;20068;-81
2021/06/17 05:51:07;;;;;;;8.20;5.90;;;;;;;26.79;49.10;100919.22;5034697;28;20045;-78
2021/06/17 05:53:34;;;;;;;9.80;7.07;;;;;;;27.30;44.75;100921.22;5033208;28;20084;-78
2021/06/17 05:56:01;;;;;;;7.03;6.32;;;;;;;28.30;43.69;100920.44;4998459;28;20099;-79
2021/06/17 05:58:27;;;;;;;7.28;6.57;;;;;;;28.86;42.05;100916.22;5034263;28;20055;-80
2021/06/17 06:00:54;;;;;;;7.63;6.90;;;;;;;29.00;41.62;100915.81;5039717;28;20545;-78
2021/06/17 06:03:21;;;;;;;7.63;6.85;;;;;;;28.26;44.36;100915.41;5038218;28;20658;-81
2021/06/17 06:05:47;;;;;;;6.72;6.03;;;;;;;27.74;45.35;100912.78;5055022;28;20037;-81
2021/06/17 06:08:14;;;;;;;7.30;6.60;;;;;;;27.42;45.78;100920.19;5036183;28;20076;-79
2021/06/17 06:10:43;;;;;;;7.35;6.65;;;;;;;27.40;46.77;100905.84;5017516;28;20053;-78
2021/06/17 06:13:09;;;;;;;7.53;6.72;;;;;;;26.86;46.74;100907.75;5041655;28;20433;-82
2021/06/17 06:15:36;;;;;;;7.18;6.50;;;;;;;26.51;47.95;100907.16;5061282;28;20102;-80
2021/06/17 06:18:07;;;;;;;8.00;7.30;;;;;;;26.50;48.46;100906.28;5033409;28;20066;-84
2021/06/17 06:20:35;;;;;;;8.10;6.97;;;;;;;25.93;48.31;100901.06;5033469;28;20100;-79
2021/06/17 06:23:03;;;;;;;7.60;6.90;;;;;;;25.54;51.13;100900.53;5021820;28;20045;-82
2021/06/17 06:25:29;;;;;;;7.63;6.85;;;;;;;25.47;50.97;100904.69;5035912;28;20045;-78
2021/06/17 06:27:56;;;;;;;8.40;7.40;;;;;;;25.80;52.28;100906.59;5038399;28;20040;-81
2021/06/17 06:30:23;;;;;;;8.63;7.72;;;;;;;26.04;50.08;100907.31;5025983;28;20102;-81
2021/06/17 06:32:49;;;;;;;9.07;7.18;;;;;;;26.04;50.78;100903.75;5023434;28;20497;-79
2021/06/17 06:35:16;;;;;;;7.88;7.15;;;;;;;25.98;50.56;100912.38;5056759;28;20044;-83
2021/06/17 06:37:49;;;;;;;8.27;7.47;;;;;;;26.03;47.98;100911.03;5031700;28;20045;-80
2021/06/17 06:40:22;;;;;;;;;;;;;;;26.31;49.82;100915.03;5051454;28;20062;-81
2021/06/17 06:42:50;;;;;;;7.97;7.22;;;;;;;26.35;49.75;100921.94;5027607;28;19966;-82
2021/06/17 06:45:16;;;;;;;7.93;7.20;;;;;;;26.62;48.00;100920.66;5023728;28;20090;-85
2021/06/17 06:47:43;;;;;;;8.55;7.18;;;;;;;26.90;49.85;100921.88;4999882;28;20045;-81
2021/06/17 06:50:10;;;;;;;8.93;7.50;;;;;;;26.91;49.99;100915.50;5015838;28;20459;-83
2021/06/17 06:52:38;;;;;;;9.07;8.18;;;;;;;26.81;48.62;100917.25;5016325;28;20136;-79
2021/06/17 06:55:05;;;;;;;12.68;7.93;;;;;;;26.72;47.59;100910.75;5025551;28;20045;-79
2021/06/17 06:57:32;;;;;;;8.05;7.25;;;;;;;26.99;48.73;100914.81;5035004;28;20037;-80
2021/06/17 06:59:58;;;;;;;9.85;8.20;;;;;;;26.98;47.88;100911.25;5026234;28;20052;-81
2021/06/17 07:02:25;;;;;;;8.65;7.82;;;;;;;27.08;46.77;100916.81;5033708;28;20052;-79
2021/06/17 07:04:52;;;;;;;8.48;7.63;;;;;;;26.92;47.61;100920.78;5041343;28;20508;-80
2021/06/17 07:07:19;;;;;;;61.33;12.85;;;;;;;27.21;48.46;100920.16;5020910;28;20110;-80
2021/06/17 07:09:45;;;;;;;8.05;7.25;;;;;;;27.40;46.69;100928.41;5032031;28;20508;-80
2021/06/17 07:12:12;;;;;;;9.30;8.35;;;;;;;27.64;48.13;100927.28;5023855;28;20174;-79
2021/06/17 07:14:42;;;;;;;8.70;7.50;;;;;;;27.46;45.76;100932.47;4997886;28;20053;-80
2021/06/17 07:17:09;;;;;;;8.63;7.00;;;;;;;27.60;46.33;100933.97;5013907;28;20041;-79
2021/06/17 07:19:35;;;;;;;8.05;7.22;;;;;;;27.67;46.13;100929.78;5018883;28;20057;-79
2021/06/17 07:22:03;;;;;;;8.30;7.53;;;;;;;27.60;45.57;100929.41;5015604;28;20044;-81
2021/06/17 07:24:29;;;;;;;8.88;7.78;;;;;;;27.10;46.63;100934.66;5017003;28;21949;-80
2021/06/17 07:26:56;;;;;;;8.43;7.38;;;;;;;27.54;47.95;100937.22;5008738;28;20049;-79
2021/06/17 07:29:23;;;;;;;9.23;8.32;;;;;;;27.59;45.43;100934.97;5033347;28;20121;-80
2021/06/17 07:31:49;;;;;;;8.55;7.75;;;;;;;27.97;45.89;100931.59;5030786;28;20041;-79
2021/06/17 07:34:16;;;;;;;10.50;7.30;;;;;;;28.23;46.57;100929.25;5031139;28;20037;-79
2021/06/17 07:36:43;;;;;;;8.57;7.60;;;;;;;28.34;45.93;100928.34;5033631;28;20131;-81
2021/06/17 07:39:12;;;;;;;9.70;8.52;;;;;;;28.19;46.34;100923.25;5018030;28;20041;-78
2021/06/17 07:41:39;;;;;;;8.98;7.07;;;;;;;28.56;46.91;100934.38;5017681;28;20053;-81
2021/06/17 07:44:06;;;;;;;8.63;7.78;;;;;;;28.63;44.48;100928.38;4999043;28;20029;-77
2021/06/17 07:46:33;;;;;;;12.90;8.10;;;;;;;28.87;45.25;100932.41;5008771;28;20093;-80
2021/06/17 07:49:00;;;;;;;44.22;10.77;;;;;;;28.77;44.52;100939.72;5019612;28;20128;-80
2021/06/17 07:51:29;;;;;;;8.60;7.80;;;;;;;28.80;42.98;100935.84;5021005;28;20453;-80
2021/06/17 07:54:00;;;;;;;9.38;7.82;;;;;;;28.95;44.09;100941.75;5013082;28;20043;-80
2021/06/17 07:56:28;;;;;;;8.63;7.93;;;;;;;28.47;43.73;100943.38;5032772;28;20051;-79
2021/06/17 07:58:55;;;;;;;9.20;8.00;;;;;;;28.80;43.89;100942.13;5000403;28;20390;-78
2021/06/17 08:01:23;;;;;;;8.05;7.30;;;;;;;29.08;45.03;100940.44;5023686;28;20484;-80
2021/06/17 08:03:50;;;;;;;8.80;7.90;;;;;;;29.26;44.46;100943.31;5044316;28;20042;-80
2021/06/17 08:06:17;;;;;;;8.10;7.28;;;;;;;29.32;43.60;100937.25;5026692;28;20041;-81
2021/06/17 08:08:44;;;;;;;8.27;7.47;;;;;;;29.11;43.45;100937.44;5030794;28;20095;-81
2021/06/17 08:11:12;;;;;;;8.65;7.95;;;;;;;29.41;43.77;100946.41;5017937;28;20484;-79
2021/06/17 08:13:52;;;;;;;9.23;8.43;;;;;;;29.69;42.67;100931.91;5023802;28;20515;-80
2021/06/17 08:16:19;;;;;;;9.15;8.27;;;;;;;29.69;42.84;100933.78;5012908;28;20040;-77
2021/06/17 08:18:46;;;;;;;9.00;7.78;;;;;;;29.51;42.72;100932.81;5024403;28;20041;-79
2021/06/17 08:21:12;;;;;;;7.63;6.93;;;;;;;29.70;43.79;100930.06;5017285;28;20045;-80
2021/06/17 08:23:39;;;;;;;8.60;7.80;;;;;;;29.60;42.79;100926.50;5002982;28;20033;-79
2021/06/17 08:26:07;;;;;;;8.88;8.05;;;;;;;29.51;43.39;100928.22;5032359;28;20045;-82
2021/06/17 08:28:34;;;;;;;96.90;15.57;;;;;;;29.48;43.94;100931.22;5032784;28;20433;-84
2021/06/17 08:31:01;;;;;;;9.70;8.15;;;;;;;29.83;43.59;100926.97;5031940;28;20123;-83
2021/06/17 08:33:32;;;;;;;10.70;8.75;;;;;;;29.71;42.15;100927.16;5012796;28;20032;-83
2021/06/17 08:36:02;;;;;;;8.63;7.85;;;;;;;29.82;42.07;100928.84;5004865;28;20072;-82
2021/06/17 08:38:29;;;;;;;11.27;8.80;;;;;;;29.53;42.36;100937.13;5019641;28;20041;-79
2021/06/17 08:40:56;;;;;;;9.70;8.63;;;;;;;29.65;43.69;100926.91;5018697;28;20072;-80
2021/06/17 08:43:23;;;;;;;13.18;8.57;;;;;;;29.84;44.60;100928.69;5001955;28;20484;-82
2021/06/17 08:45:50;;;;;;;45.85;11.40;;;;;;;30.22;44.37;100924.97;5033509;28;20065;-80
2021/06/17 08:48:16;;;;;;;129.48;19.50;;;;;;;30.66;44.00;100936.91;5014056;28;20040;-82
2021/06/17 08:50:43;;;;;;;9.52;8.55;;;;;;;30.77;40.78;100942.16;4999779;28;20129;-81
2021/06/17 08:53:10;;;;;;;8.88;7.72;;;;;;;31.01;41.04;100937.91;5049453;28;20067;-81
2021/06/17 08:55:38;;;;;;;9.15;8.20;;;;;;;30.86;40.08;100940.34;5017469;28;20091;-79
2021/06/17 08:58:04;;;;;;;8.82;8.02;;;;;;;30.78;40.69;100949.31;5017548;28;20037;-80
2021/06/17 09:00:37;;;;;;;9.45;8.63;;;;;;;30.76;41.38;100943.13;5033028;28;20048;-81
2021/06/17 09:03:12;;;;;;;10.02;9.13;;;;;;;30.63;40.57;100939.06;5015895;28;20045;-81
2021/06/17 09:05:44;;;;;;;19.00;10.60;;;;;;;30.12;41.19;100935.94;5022712;28;20484;-80
2021/06/17 09:08:14;;;;;;;10.35;8.98;;;;;;;30.58;42.47;100942.22;5028557;28;20524;-79
2021/06/17 09:10:42;;;;;;;9.65;8.75;;;;;;;30.71;40.99;100944.63;4999564;28;20075;-79
2021/06/17 09:13:11;;;;;;;11.43;8.00;;;;;;;30.74;41.08;100944.31;5029079;28;20041;-80
2021/06/17 09:15:45;;;;;;;11.95;8.80;;;;;;;30.60;41.68;100936.63;5005582;28;20045;-80
2021/06/17 09:18:21;;;;;;;9.48;8.63;;;;;;;30.49;41.37;100926.81;5040641;28;20101;-81
2021/06/17 09:20:52;;;;;;;9.77;8.88;;;;;;;30.94;42.08;100929.53;5036414;28;20134;-81
2021/06/17 09:23:25;;;;;;;9.70;8.70;;;;;;;31.26;41.24;100939.84;5022418;28;20103;-80
2021/06/17 09:25:58;;;;;;;9.23;8.35;;;;;;;31.49;39.92;100942.94;5011132;28;21238;-81
2021/06/17 09:28:46;;;;;;;10.05;8.73;;;;;;;31.71;38.94;100943.44;5045076;28;20309;-81
2021/06/17 09:31:25;;;;;;;9.35;8.48;;;;;;;31.80;41.21;100935.16;5026824;28;20052;-79
2021/06/17 09:33:53;;;;;;;11.63;9.52;;;;;;;31.63;39.41;100930.56;4998606;28;20060;-79
2021/06/17 09:36:24;;;;;;;9.40;8.18;;;;;;;32.10;39.66;100931.00;5025972;28;20132;-79
2021/06/17 09:38:57;;;;;;;24.08;9.38;;;;;;;31.91;37.83;100932.13;5020774;28;20071;-81
2021/06/17 09:41:42;;;;;;;8.70;7.90;;;;;;;31.99;39.85;100923.09;5003957;28;20041;-79
2021/06/17 09:44:30;;;;;;;8.98;8.07;;;;;;;31.98;40.35;100936.94;5023882;28;20040;-78
2021/06/17 09:47:07;;;;;;;8.73;7.85;;;;;;;32.38;37.57;100936.28;5013000;28;20094;-78
2021/06/17 09:49:35;;;;;;;8.60;7.80;;;;;;;32.15;37.20;100939.56;5021229;28;20040;-79
2021/06/17 09:52:02;;;;;;;7.88;7.07;;;;;;;31.68;37.98;100928.19;5004851;28;20038;-78
2021/06/17 09:54:31;;;;;;;8.43;7.63;;;;;;;31.97;38.97;100927.88;5025589;28;20094;-80
2021/06/17 09:57:04;;;;;;;8.70;7.80;;;;;;;31.33;36.82;100926.44;5000445;28;21379;-79
2021/06/17 09:59:39;;;;;;;9.18;8.27;;;;;;;32.03;37.90;100926.34;5013264;28;20769;-81
2021/06/17 10:02:08;;;;;;;9.55;8.68;;;;;;;31.78;37.81;100915.31;5011726;28;20049;-77
2021/06/17 10:04:35;;;;;;;9.00;8.10;;;;;;;31.88;37.70;100917.94;5010711;28;20044;-77
2021/06/17 10:07:02;;;;;;;8.90;8.10;;;;;;;32.17;37.98;100910.19;5023683;28;20044;-81
2021/06/17 10:09:29;;;;;;;9.20;8.30;;;;;;;32.44;36.27;100909.09;5021464;28;20140;-80
2021/06/17 10:11:57;;;;;;;8.45;7.03;;;;;;;32.38;35.76;100907.06;5038885;28;20469;-80
2021/06/17 10:14:24;;;;;;;7.15;6.55;;;;;;;32.68;35.62;100907.44;5039406;28;20025;-78
2021/06/17 10:16:52;;;;;;;12.00;9.48;;;;;;;32.87;35.61;100909.88;4990270;28;20098;-80
2021/06/17 10:19:19;;;;;;;7.60;6.75;;;;;;;32.99;35.23;100904.94;5022731;28;20038;-78
2021/06/17 10:21:49;;;;;;;104.80;94.47;;;;;;;33.08;35.86;100898.44;5014035;28;20037;-79
2021/06/17 10:24:16;;;;;;;238.80;36.28;;;;;;;32.87;35.49;100901.66;5030654;28;20080;-80
2021/06/17 10:26:45;;;;;;;17.35;15.75;;;;;;;32.83;34.92;100903.00;5029345;28;20044;-79
2021/06/17 10:29:25;;;;;;;9.57;8.68;;;;;;;33.00;34.26;100899.28;5032509;28;20075;-83
2021/06/17 10:31:56;;;;;;;9.10;8.10;;;;;;;32.43;36.48;100890.97;5047279;28;20094;-83
2021/06/17 10:34:27;;;;;;;18.67;9.38;;;;;;;32.51;35.31;100889.28;5015698;28;20135;-79
2021/06/17 10:37:21;;;;;;;14.20;8.68;;;;;;;32.34;34.69;100886.53;5012817;28;20126;-80
2021/06/17 10:39:53;;;;;;;9.30;8.27;;;;;;;32.74;36.14;100883.00;5029935;28;20052;-82
2021/06/17 10:42:31;;;;;;;9.65;8.30;;;;;;;32.93;35.91;100892.78;5010680;28;20550;-81
2021/06/17 10:45:10;;;;;;;8.82;8.05;;;;;;;33.18;36.03;100890.03;5014110;28;20044;-81
2021/06/17 10:47:57;;;;;;;8.73;7.93;;;;;;;33.23;34.42;100885.75;5030481;28;20107;-84
2021/06/17 10:50:32;;;;;;;8.15;7.45;;;;;;;32.96;33.47;100875.16;5014863;28;20106;-80
2021/06/17 10:53:31;;;;;;;8.80;7.68;;;;;;;32.88;34.51;100881.50;5032198;28;20067;-82
2021/06/17 10:56:07;;;;;;;11.30;9.15;;;;;;;32.64;34.73;100879.56;4998870;28;20526;-80
2021/06/17 10:58:43;;;;;;;10.18;8.38;;;;;;;32.84;33.79;100863.69;5047231;28;20533;-81
2021/06/17 11:01:29;;;;;;;8.82;8.13;;;;;;;33.08;33.62;100873.78;5026368;28;20049;-80
2021/06/17 11:04:18;;;;;;;8.55;7.75;;;;;;;32.97;34.00;100869.53;5015163;28;20037;-82
2021/06/17 11:07:05;;;;;;;8.15;7.55;;;;;;;33.38;34.80;100879.59;5005678;28;20568;-81
2021/06/17 11:09:35;;;;;;;9.23;8.40;;;;;;;33.73;34.34;100876.41;5032011;28;20509;-81
2021/06/17 11:12:35;;;;;;;8.23;7.43;;;;;;;33.93;33.60;100876.88;5047134;28;20041;-80
2021/06/17 11:15:03;;;;;;;9.18;8.15;;;;;;;33.48;33.74;100872.06;5047487;28;20153;-81
2021/06/17 11:17:30;;;;;;;8.80;8.10;;;;;;;33.71;33.57;100867.50;5002564;28;20048;-81
2021/06/17 11:20:00;;;;;;;21.02;9.27;;;;;;;33.75;33.90;100862.53;5012417;28;20049;-81
2021/06/17 11:22:34;;;;;;;26.63;10.65;;;;;;;33.72;33.24;100857.41;5019970;28;20071;-82
2021/06/17 11:25:21;;;;;;;8.93;8.20;;;;;;;33.98;32.75;100859.91;5013330;28;20106;-81
2021/06/17 11:28:05;;;;;;;8.05;7.25;;;;;;;33.92;33.48;100864.22;5053690;28;20461;-83
2021/06/17 11:30:38;;;;;;;8.68;7.93;;;;;;;34.22;32.18;100864.38;5011816;28;20044;-81
2021/06/17 11:33:14;;;;;;;;;;;;;;;34.36;32.09;100858.97;5043082;28;20409;-81
2021/06/17 11:36:05;;;;;;;7.72;6.82;;;;;;;34.44;28.77;100855.38;5039992;28;19928;-83
2021/06/17 11:38:33;;;;;;;7.35;6.65;;;;;;;34.46;28.77;100850.53;4995550;28;20492;-82
2021/06/17 11:41:17;;;;;;;6.93;6.32;;;;;;;34.38;29.13;100856.06;5026787;28;20053;-81